Bicycle Lake Army Air Field
KBYS : rendu visible

Aérodrome :











RETROUVEZ-NOUS SUR...

 
LOGIN :

S'inscrire | Disclaimer

   EN    FR    IT 

 









Légende :    VFR   VFR Marginal   IFR   IFR Intensif   IFR Très Intensif
Visi : 
Plafond : 
>= 8 km
>= 3000ft
5 à 8 km
1000 à 3000 ft
1500m à 5 km
500 à 1000 ft
800 à 1500m
200 à 500 ft
< 800m
< 200 ft
Symboles :   Orages  Brouillard  Fortes neiges  Fortes précipitations  Vent > 20 kt






- Altitude de l'aérodrome : 2350 ft


KBYS - Bicycle Lake Army Air Field

DERNIER METAR :
  • 231758Z AUTO 01003KT 10SM FEW180 14/M06 A2987 RMK AO2 SLP110 T01361056 10136 20037 52013 $

METARs EXPIRÉS :
  • 231658Z AUTO 36006KT 10SM BKN150 12/M06 A2985 RMK AO2 SLP103 T01181057 $
  • 231558Z AUTO 34005KT 10SM FEW170 OVC200 09/M07 A2985 RMK AO2 SLP103 T00881070 $

Prévision TAF périmée.
FIR KZLA / Amérique du Nord



MET'MAP, la Météo Aéronautique d'un coup d'oeil ! - Copyright ORBIFLY Décembre 2007 - Disclaimer

ORBIFLY MET'MAP TEAM :

Programmation & Développement : Alexandra Zaïnal
Sur une idée originale de : Baudouin d'Aumeries
Assistance à la programmation : Marc-Olivier Méhu
Soutien technique & logistique : Manuel Goepfert

Contact : metmap@orbifly.com




SOURCES & CREDITS :

   NOAA       Earth
Advisory